createdAt,value
2022-10-22T00:01:14.948Z,100062.31
2022-10-22T00:03:43.811Z,100060.56
2022-10-22T00:06:12.799Z,100052.75
2022-10-22T00:08:41.848Z,100062.94
2022-10-22T00:11:13.367Z,100065.50
2022-10-22T00:13:40.494Z,100071.47
2022-10-22T00:16:12.593Z,100070.03
2022-10-22T00:18:41.901Z,100065.75
2022-10-22T00:21:08.843Z,100066.72
2022-10-22T00:23:35.360Z,100060.13
2022-10-22T00:26:04.109Z,100060.13
2022-10-22T00:28:30.601Z,100054.84
2022-10-22T00:31:02.628Z,100056.63
2022-10-22T00:33:32.169Z,100059.97
2022-10-22T00:35:58.958Z,100046.34
2022-10-22T00:38:28.028Z,100049.66
2022-10-22T00:40:56.640Z,100053.25
2022-10-22T00:43:23.242Z,100044.63
2022-10-22T00:45:51.995Z,100046.38
2022-10-22T00:48:31.045Z,100040.25
2022-10-22T00:51:06.327Z,100028.94
2022-10-22T00:53:42.873Z,100023.81
2022-10-22T00:56:10.653Z,100038.50
2022-10-22T00:58:42.426Z,100046.13
2022-10-22T01:01:14.060Z,100044.31
2022-10-22T01:03:40.933Z,100044.41
2022-10-22T01:06:07.694Z,100042.81
2022-10-22T01:09:04.623Z,100042.16
2022-10-22T01:11:54.220Z,100047.06
2022-10-22T01:14:32.945Z,100039.53
2022-10-22T01:17:08.129Z,100046.47
2022-10-22T01:20:01.170Z,100047.31
2022-10-22T01:22:40.794Z,100046.84
2022-10-22T01:25:30.770Z,100039.16
2022-10-22T01:28:18.511Z,100040.94
2022-10-22T01:30:46.281Z,100037.41
2022-10-22T01:33:16.648Z,100037.47
2022-10-22T01:35:45.294Z,100043.53
2022-10-22T01:38:19.394Z,100045.13
2022-10-22T01:40:51.696Z,100043.34
2022-10-22T01:43:20.556Z,100034.09
2022-10-22T01:46:07.056Z,100033.06
2022-10-22T01:48:42.667Z,100026.28
2022-10-22T01:51:20.910Z,100023.88
2022-10-22T01:54:22.166Z,100023.09
2022-10-22T01:57:16.135Z,100025.53
2022-10-22T01:59:58.661Z,100016.38
2022-10-22T02:02:43.427Z,100023.22
2022-10-22T02:05:15.744Z,100015.84
2022-10-22T02:07:52.656Z,100019.63
2022-10-22T02:10:20.212Z,100020.59
2022-10-22T02:12:54.449Z,100012.88
2022-10-22T02:15:23.964Z,100023.44
2022-10-22T02:17:55.587Z,100032.81
2022-10-22T02:20:29.625Z,100031.03
2022-10-22T02:22:59.619Z,100036.19
2022-10-22T02:25:30.968Z,100027.47
2022-10-22T02:28:19.813Z,100021.31
2022-10-22T02:30:53.984Z,100032.47
2022-10-22T02:33:28.279Z,100034.53
2022-10-22T02:35:56.247Z,100028.16
2022-10-22T02:38:29.619Z,100017.84
2022-10-22T02:40:56.307Z,100014.84
2022-10-22T02:43:28.923Z,100017.19
2022-10-22T02:45:57.651Z,100024.69
2022-10-22T02:48:24.183Z,100031.78
2022-10-22T02:50:55.210Z,100030.28
2022-10-22T02:53:21.679Z,100054.31
2022-10-22T02:55:48.174Z,100045.88
2022-10-22T02:58:17.160Z,100039.84
2022-10-22T03:00:45.969Z,100042.53
2022-10-22T03:03:15.294Z,100044.25
2022-10-22T03:05:46.727Z,100044.25
2022-10-22T03:08:15.454Z,100033.50
2022-10-22T03:10:41.971Z,100040.44
2022-10-22T03:13:10.662Z,100042.91
2022-10-22T03:15:37.154Z,100036.50
2022-10-22T03:18:04.197Z,100035.91
2022-10-22T03:20:30.693Z,100032.47
2022-10-22T03:23:00.641Z,100024.66
2022-10-22T03:25:28.532Z,100024.88
2022-10-22T03:27:57.979Z,100024.50
2022-10-22T03:30:26.981Z,100026.66
2022-10-22T03:32:53.435Z,100019.03
2022-10-22T03:35:19.997Z,100003.28
2022-10-22T03:37:51.609Z,100000.75
2022-10-22T03:40:21.387Z,99996.59
2022-10-22T03:42:50.357Z,99992.63
2022-10-22T03:45:16.864Z,99982.31
2022-10-22T03:47:43.513Z,99991.03
2022-10-22T03:50:10.915Z,99984.13
2022-10-22T03:52:39.347Z,99993.69
2022-10-22T03:55:07.503Z,99998.84
2022-10-22T03:57:36.792Z,99995.19
2022-10-22T04:00:05.696Z,99993.06
2022-10-22T04:02:34.746Z,100009.94
2022-10-22T04:05:01.163Z,100008.16
2022-10-22T04:07:27.706Z,100008.44
2022-10-22T04:09:54.185Z,100010.97
2022-10-22T04:12:20.766Z,100020.00
2022-10-22T04:14:47.754Z,100013.06
2022-10-22T04:17:14.496Z,100006.34
2022-10-22T04:19:40.981Z,100012.63
2022-10-22T04:22:12.013Z,100009.13
2022-10-22T04:24:43.411Z,100021.31
2022-10-22T04:27:14.916Z,100023.25
2022-10-22T04:29:41.397Z,100019.50
2022-10-22T04:32:10.206Z,100008.44
2022-10-22T04:34:41.608Z,100007.56
2022-10-22T04:37:10.352Z,100012.75
2022-10-22T04:39:36.849Z,100000.28
2022-10-22T04:42:03.931Z,100001.16
2022-10-22T04:44:33.066Z,100001.91
2022-10-22T04:47:01.828Z,100008.34
2022-10-22T04:49:28.404Z,100009.00
2022-10-22T04:51:57.143Z,99987.19
2022-10-22T04:54:29.013Z,99987.41
2022-10-22T04:56:58.716Z,99994.28
2022-10-22T04:59:25.315Z,99999.66
2022-10-22T05:01:51.841Z,100006.63
2022-10-22T05:04:19.739Z,99992.56
2022-10-22T05:06:48.655Z,100002.81
2022-10-22T05:09:20.519Z,100003.13
2022-10-22T05:11:51.696Z,100004.91
2022-10-22T05:14:20.897Z,100010.13
2022-10-22T05:16:48.707Z,100001.50
2022-10-22T05:19:27.619Z,100002.56
2022-10-22T05:21:59.481Z,100002.22
2022-10-22T05:24:27.067Z,100005.88
2022-10-22T05:26:57.334Z,100000.78
2022-10-22T05:29:24.913Z,100002.69
2022-10-22T05:31:53.744Z,100004.88
2022-10-22T05:34:22.664Z,100004.69
2022-10-22T05:36:51.699Z,100008.44
2022-10-22T05:39:18.258Z,99999.59
2022-10-22T05:41:44.879Z,99998.16
2022-10-22T05:44:16.265Z,100001.13
2022-10-22T05:46:45.311Z,99999.66
2022-10-22T05:49:15.193Z,99996.66
2022-10-22T05:51:44.327Z,100009.81
2022-10-22T05:54:16.947Z,100011.44
2022-10-22T05:56:43.450Z,100009.88
2022-10-22T05:59:13.124Z,100022.66
2022-10-22T06:01:40.751Z,100018.59
2022-10-22T06:04:10.783Z,100025.34
2022-10-22T06:06:40.624Z,100032.28
2022-10-22T06:09:18.457Z,100033.19
2022-10-22T06:11:48.989Z,100041.03
2022-10-22T06:14:16.571Z,100047.03
2022-10-22T06:16:43.536Z,100048.94
2022-10-22T06:19:14.076Z,100043.03
2022-10-22T06:21:44.049Z,100038.09
2022-10-22T06:24:11.519Z,100041.66
2022-10-22T06:26:43.840Z,100033.09
2022-10-22T06:29:12.902Z,100035.59
2022-10-22T06:31:42.106Z,100042.69
2022-10-22T06:34:14.666Z,100049.75
2022-10-22T06:36:44.955Z,100043.91
2022-10-22T06:39:12.924Z,100045.59
2022-10-22T06:41:39.436Z,100041.41
2022-10-22T06:44:05.936Z,100050.81
2022-10-22T06:46:34.657Z,100066.34
2022-10-22T06:49:05.782Z,100066.47
2022-10-22T06:51:35.103Z,100065.00
2022-10-22T06:54:01.579Z,100063.25
2022-10-22T06:56:29.062Z,100059.75
2022-10-22T06:58:58.685Z,100049.19
2022-10-22T07:01:31.319Z,100054.69
2022-10-22T07:03:58.190Z,100044.41
2022-10-22T07:06:26.932Z,100049.66
2022-10-22T07:08:54.653Z,100063.50
2022-10-22T07:11:45.319Z,100057.72
2022-10-22T07:14:12.909Z,100046.59
2022-10-22T07:16:42.059Z,100052.56
2022-10-22T07:19:11.391Z,100043.25
2022-10-22T07:21:38.055Z,100044.09
2022-10-22T07:24:04.791Z,100047.41
2022-10-22T07:26:33.624Z,100053.56
2022-10-22T07:29:03.144Z,100049.19
2022-10-22T07:31:34.423Z,100048.31
2022-10-22T07:34:03.250Z,100048.31
2022-10-22T07:36:29.748Z,100035.63
2022-10-22T07:38:58.166Z,100044.19
2022-10-22T07:41:25.515Z,100050.25
2022-10-22T07:43:52.042Z,100036.50
2022-10-22T07:46:21.801Z,100030.59
2022-10-22T07:48:48.678Z,100041.84
2022-10-22T07:51:15.759Z,100049.00
2022-10-22T07:53:44.354Z,100045.59
2022-10-22T07:56:13.938Z,100051.50
2022-10-22T07:58:41.581Z,100056.84
2022-10-22T08:01:08.187Z,100052.66
2022-10-22T08:03:37.499Z,100050.97
2022-10-22T08:06:04.268Z,100047.66
2022-10-22T08:08:36.064Z,100039.31
2022-10-22T08:11:05.579Z,100050.56
2022-10-22T08:13:32.111Z,100054.97
2022-10-22T08:16:02.156Z,100053.19
2022-10-22T08:18:31.690Z,100044.66
2022-10-22T08:20:58.561Z,100041.19
2022-10-22T08:23:29.925Z,100034.31
2022-10-22T08:26:02.967Z,100045.75
2022-10-22T08:28:35.905Z,100043.28
2022-10-22T08:31:07.388Z,100045.00
2022-10-22T08:33:34.524Z,100050.19
2022-10-22T08:36:03.646Z,100046.84
2022-10-22T08:38:35.309Z,100045.94
2022-10-22T08:41:23.655Z,100053.69
2022-10-22T08:44:10.770Z,100053.72
2022-10-22T08:46:46.315Z,100057.09
2022-10-22T08:49:24.464Z,100055.47
2022-10-22T08:51:51.591Z,100060.59
2022-10-22T08:54:41.498Z,100057.19
2022-10-22T08:57:26.670Z,100049.41
2022-10-22T09:00:02.084Z,100063.25
2022-10-22T09:02:40.699Z,100046.00
2022-10-22T09:05:25.638Z,100045.16
2022-10-22T09:07:53.141Z,100058.94
2022-10-22T09:10:24.661Z,100057.22
2022-10-22T09:12:51.259Z,100057.25
2022-10-22T09:15:21.636Z,100055.50
2022-10-22T09:17:59.904Z,100062.41
2022-10-22T09:20:55.853Z,100048.63
2022-10-22T09:23:43.995Z,100048.69
2022-10-22T09:26:16.123Z,100050.38
2022-10-22T09:28:43.364Z,100039.19
2022-10-22T09:31:14.624Z,100054.72
2022-10-22T09:33:48.956Z,100052.94
2022-10-22T09:36:22.336Z,100059.88
2022-10-22T09:38:55.796Z,100066.69
2022-10-22T09:41:26.503Z,100074.50
2022-10-22T09:43:55.307Z,100063.28
2022-10-22T09:46:24.920Z,100072.78
2022-10-22T09:48:57.536Z,100073.69
2022-10-22T09:51:42.386Z,100058.19
2022-10-22T09:54:44.801Z,100042.63
2022-10-22T09:57:17.533Z,100053.84
2022-10-22T09:59:47.375Z,100051.28
2022-10-22T10:02:37.089Z,100060.72
2022-10-22T10:05:05.869Z,100049.53
2022-10-22T10:07:37.127Z,100055.59
2022-10-22T10:10:28.383Z,100048.66
2022-10-22T10:13:12.332Z,100052.13
2022-10-22T10:15:52.789Z,100045.22
2022-10-22T10:18:44.261Z,100036.53
2022-10-22T10:21:56.549Z,100034.03
2022-10-22T10:24:41.203Z,100039.19
2022-10-22T10:27:44.931Z,100041.75
2022-10-22T10:30:25.960Z,100036.56
2022-10-22T10:33:22.119Z,100040.03
2022-10-22T10:36:25.326Z,100034.88
2022-10-22T10:39:08.872Z,100034.00
2022-10-22T10:41:45.904Z,100032.25
2022-10-22T10:44:31.020Z,100039.13
2022-10-22T10:47:11.554Z,100039.94
2022-10-22T10:49:38.142Z,100046.88
2022-10-22T10:52:29.309Z,100055.50
2022-10-22T10:55:18.868Z,100056.38
2022-10-22T10:58:02.555Z,100056.38
2022-10-22T11:00:37.377Z,100052.94
2022-10-22T11:03:15.490Z,100058.97
2022-10-22T11:05:55.817Z,100058.97
2022-10-22T11:08:28.981Z,100055.53
2022-10-22T11:11:03.844Z,100050.34
2022-10-22T11:13:50.801Z,100046.00
2022-10-22T11:16:26.261Z,100050.31
2022-10-22T11:19:06.016Z,100040.78
2022-10-22T11:22:09.556Z,100039.88
2022-10-22T11:24:50.824Z,100034.66
2022-10-22T11:27:37.394Z,100029.50
2022-10-22T11:30:14.933Z,100024.31
2022-10-22T11:32:44.219Z,100015.63
2022-10-22T11:35:24.853Z,100012.97
2022-10-22T11:37:55.903Z,100012.06
2022-10-22T11:40:28.662Z,100010.50
2022-10-22T11:43:08.813Z,100012.38
2022-10-22T11:45:43.654Z,100014.81
2022-10-22T11:48:12.532Z,100003.47
2022-10-22T11:50:44.983Z,100007.00
2022-10-22T11:53:17.291Z,100005.22
2022-10-22T11:55:49.140Z,99994.78
2022-10-22T11:58:28.256Z,100005.91
2022-10-22T12:01:00.142Z,99999.00
2022-10-22T12:03:35.064Z,100004.16
2022-10-22T12:06:15.626Z,100000.75
2022-10-22T12:08:46.458Z,99996.44
2022-10-22T12:11:24.982Z,99988.50
2022-10-22T12:14:00.349Z,99986.78
2022-10-22T12:16:56.073Z,99993.72
2022-10-22T12:19:23.696Z,99996.38
2022-10-22T12:21:57.757Z,99986.88
2022-10-22T12:24:34.427Z,99987.88
2022-10-22T12:27:03.675Z,99988.56
2022-10-22T12:29:35.238Z,99975.59
2022-10-22T12:32:07.466Z,99975.81
2022-10-22T12:34:34.027Z,99981.75
2022-10-22T12:37:06.816Z,99972.94
2022-10-22T12:39:35.661Z,99969.47
2022-10-22T12:42:06.281Z,99968.53
2022-10-22T12:44:35.281Z,99968.59
2022-10-22T12:47:01.982Z,99979.69
2022-10-22T12:49:40.800Z,99987.44
2022-10-22T12:52:14.156Z,99989.22
2022-10-22T12:54:40.886Z,99994.41
2022-10-22T12:57:13.426Z,99991.81
2022-10-22T12:59:45.854Z,99981.44
2022-10-22T13:02:17.362Z,99990.94
2022-10-22T13:05:18.899Z,99990.16
2022-10-22T13:07:55.242Z,99988.56
2022-10-22T13:10:27.453Z,99986.75
2022-10-22T13:12:58.700Z,99984.06
2022-10-22T13:15:28.243Z,99980.75
2022-10-22T13:18:21.038Z,99977.25
2022-10-22T13:21:03.130Z,99985.84
2022-10-22T13:23:31.926Z,99986.75
2022-10-22T13:26:04.151Z,99983.25
2022-10-22T13:28:32.400Z,99981.56
2022-10-22T13:31:15.200Z,99975.53
2022-10-22T13:33:46.318Z,99973.81
2022-10-22T13:36:16.643Z,99979.00
2022-10-22T13:38:44.524Z,99983.38
2022-10-22T13:41:32.295Z,99985.09
2022-10-22T13:43:58.923Z,99991.19
2022-10-22T13:46:29.497Z,100005.88
2022-10-22T13:48:59.956Z,99998.06
2022-10-22T13:51:36.375Z,99992.16
2022-10-22T13:54:04.301Z,99993.16
2022-10-22T13:56:33.097Z,100005.19
2022-10-22T13:58:59.577Z,99995.81
2022-10-22T14:01:27.592Z,100002.72
2022-10-22T14:03:58.789Z,100002.78
2022-10-22T14:06:31.351Z,100008.00
2022-10-22T14:09:00.267Z,99995.06
2022-10-22T14:11:31.181Z,99995.84
2022-10-22T14:14:00.128Z,100003.56
2022-10-22T14:16:27.551Z,100012.22
2022-10-22T14:18:55.094Z,100017.38
2022-10-22T14:21:21.856Z,100011.47
2022-10-22T14:23:52.723Z,100003.63
2022-10-22T14:26:28.221Z,100000.97
2022-10-22T14:29:09.252Z,100001.81
2022-10-22T14:34:17.051Z,99993.19
2022-10-22T14:36:47.001Z,99993.22
2022-10-22T14:39:14.023Z,99995.00
2022-10-22T14:41:41.461Z,100001.00
2022-10-22T14:44:12.711Z,100006.28
2022-10-22T14:46:44.012Z,99995.03
2022-10-22T14:49:10.703Z,100012.25
2022-10-22T14:51:37.188Z,100001.91
2022-10-22T14:54:06.245Z,100001.97
2022-10-22T14:56:38.549Z,100008.84
2022-10-22T14:59:07.440Z,100009.75
2022-10-22T15:01:34.210Z,100009.84
2022-10-22T15:04:00.735Z,100007.22
2022-10-22T15:06:27.252Z,100004.63
2022-10-22T15:08:56.339Z,100015.03
2022-10-22T15:11:27.390Z,100015.00
2022-10-22T15:13:56.242Z,100003.78
2022-10-22T15:16:25.818Z,100008.97
2022-10-22T15:18:54.995Z,100004.66
2022-10-22T15:21:26.363Z,100009.00
2022-10-22T15:23:55.338Z,100005.50
2022-10-22T15:26:24.208Z,100014.13
2022-10-22T15:28:52.740Z,100014.19
2022-10-22T15:31:54.673Z,100011.56
2022-10-22T15:34:27.322Z,100018.47
2022-10-22T15:36:56.352Z,100010.69
2022-10-22T15:39:23.324Z,100005.50
2022-10-22T15:41:50.886Z,100008.97
2022-10-22T15:44:25.362Z,100022.78
2022-10-22T15:46:54.809Z,100015.84
2022-10-22T15:49:25.189Z,100032.28
2022-10-22T15:51:53.946Z,100036.59
2022-10-22T15:54:25.822Z,100029.69
2022-10-22T15:56:54.629Z,100036.59
2022-10-22T15:59:25.869Z,100040.06
2022-10-22T16:01:54.634Z,100053.88
2022-10-22T16:04:23.596Z,100061.63
2022-10-22T16:06:52.752Z,100063.34
2022-10-22T16:09:22.662Z,100067.66
2022-10-22T16:11:54.507Z,100073.63
2022-10-22T16:14:24.339Z,100072.66
2022-10-22T16:16:53.421Z,100082.19
2022-10-22T16:19:22.340Z,100089.09
2022-10-22T16:21:50.146Z,100096.78
2022-10-22T16:24:20.177Z,100100.31
2022-10-22T16:26:53.166Z,100098.56
2022-10-22T16:29:20.066Z,100115.75
2022-10-22T16:31:46.582Z,100126.13
2022-10-22T16:34:15.588Z,100126.06
2022-10-22T16:36:44.595Z,100133.78
2022-10-22T16:39:11.250Z,100121.78
2022-10-22T16:41:38.386Z,100138.13
2022-10-22T16:44:10.594Z,100136.41
2022-10-22T16:46:39.486Z,100146.47
2022-10-22T16:49:07.115Z,100142.34
2022-10-22T16:51:34.484Z,100142.34
2022-10-22T16:54:01.237Z,100144.97
2022-10-22T16:56:31.001Z,100150.06
2022-10-22T16:59:00.851Z,100155.34
2022-10-22T17:01:30.341Z,100154.44
2022-10-22T17:04:00.429Z,100162.09
2022-10-22T17:06:27.425Z,100164.69
2022-10-22T17:08:54.013Z,100159.56
2022-10-22T17:11:22.727Z,100156.88
2022-10-22T17:13:53.865Z,100156.75
2022-10-22T17:16:24.918Z,100150.81
2022-10-22T17:18:53.579Z,100152.47
2022-10-22T17:21:22.900Z,100147.25
2022-10-22T17:23:53.646Z,100149.88
2022-10-22T17:26:26.459Z,100161.00
2022-10-22T17:28:53.393Z,100151.59
2022-10-22T17:31:32.681Z,100153.38
2022-10-22T17:34:00.040Z,100168.53
2022-10-22T17:36:35.027Z,100169.44
2022-10-22T17:39:07.772Z,100173.81
2022-10-22T17:41:37.563Z,100170.22
2022-10-22T17:44:06.195Z,100169.91
2022-10-22T17:46:35.926Z,100180.69
2022-10-22T17:49:06.937Z,100183.38
2022-10-22T17:51:33.616Z,100188.34
2022-10-22T17:54:05.942Z,100178.88
2022-10-22T17:56:37.001Z,100181.66
2022-10-22T17:59:05.760Z,100179.81
2022-10-22T18:01:43.280Z,100180.31
2022-10-22T18:04:14.500Z,100191.44
2022-10-22T18:06:41.234Z,100191.56
2022-10-22T18:09:11.470Z,100208.69
2022-10-22T18:11:42.373Z,100205.75
2022-10-22T18:14:08.803Z,100201.66
2022-10-22T18:16:38.152Z,100204.91
2022-10-22T18:19:06.540Z,100211.91
2022-10-22T18:21:33.210Z,100193.66
2022-10-22T18:24:07.041Z,100205.28
2022-10-22T18:26:33.630Z,100212.88
2022-10-22T18:29:00.244Z,100224.16
2022-10-22T18:31:28.450Z,100219.88
2022-10-22T18:33:57.825Z,100234.59
2022-10-22T18:36:26.548Z,100234.16
2022-10-22T18:38:58.034Z,100230.03
2022-10-22T18:41:25.359Z,100231.72
2022-10-22T18:44:03.462Z,100250.47
2022-10-22T18:46:40.178Z,100255.66
2022-10-22T18:49:15.605Z,100240.91
2022-10-22T18:51:42.110Z,100250.81
2022-10-22T18:54:22.569Z,100238.72
2022-10-22T18:57:00.468Z,100240.63
2022-10-22T18:59:28.896Z,100233.00
2022-10-22T19:01:59.304Z,100223.41
2022-10-22T19:04:31.024Z,100244.88
2022-10-22T19:06:58.009Z,100253.47
2022-10-22T19:09:28.313Z,100241.63
2022-10-22T19:11:58.119Z,100241.03
2022-10-22T19:14:24.663Z,100246.31
2022-10-22T19:16:53.346Z,100239.44
2022-10-22T19:19:27.783Z,100241.16
2022-10-22T19:21:56.545Z,100259.81
2022-10-22T19:24:25.047Z,100249.38
2022-10-22T19:26:54.583Z,100250.03
2022-10-22T19:29:21.812Z,100250.75
2022-10-22T19:31:51.286Z,100261.91
2022-10-22T19:34:18.904Z,100266.25
2022-10-22T19:36:47.914Z,100265.53
2022-10-22T19:39:18.907Z,100264.53
2022-10-22T19:41:45.482Z,100277.34
2022-10-22T19:44:12.097Z,100275.56
2022-10-22T19:46:38.847Z,100279.78
2022-10-22T19:49:06.481Z,100286.63
2022-10-22T19:51:34.456Z,100285.66
2022-10-22T19:54:08.958Z,100281.09
2022-10-22T19:56:36.194Z,100291.09
2022-10-22T19:59:04.350Z,100297.41
2022-10-22T20:01:32.045Z,100303.41
2022-10-22T20:04:01.617Z,100315.44
2022-10-22T20:06:30.867Z,100311.97
2022-10-22T20:08:59.657Z,100326.97
2022-10-22T20:11:30.113Z,100313.38
2022-10-22T20:13:57.260Z,100323.97
2022-10-22T20:16:25.986Z,100321.34
2022-10-22T20:18:58.616Z,100317.13
2022-10-22T20:21:25.130Z,100341.34
2022-10-22T20:23:56.601Z,100323.03
2022-10-22T20:26:28.191Z,100328.25
2022-10-22T20:28:56.507Z,100334.06
2022-10-22T20:31:25.034Z,100327.56
2022-10-22T20:33:57.382Z,100334.63
2022-10-22T20:36:27.146Z,100317.53
2022-10-22T20:39:00.753Z,100340.63
2022-10-22T20:41:33.979Z,100326.03
2022-10-22T20:44:03.204Z,100326.25
2022-10-22T20:46:31.988Z,100326.84
2022-10-22T20:49:04.774Z,100336.00
2022-10-22T20:51:31.936Z,100329.31
2022-10-22T20:54:03.296Z,100344.25
2022-10-22T20:56:35.062Z,100340.13
2022-10-22T20:59:04.970Z,100343.78
2022-10-22T21:01:38.496Z,100348.31
2022-10-22T21:04:05.905Z,100346.56
2022-10-22T21:06:33.068Z,100341.84
2022-10-22T21:08:59.761Z,100342.63
2022-10-22T21:11:26.300Z,100347.66
2022-10-22T21:13:52.778Z,100353.84
2022-10-22T21:16:21.567Z,100354.47
2022-10-22T21:18:48.375Z,100361.34
2022-10-22T21:21:19.108Z,100350.97
2022-10-22T21:23:50.251Z,100351.75
2022-10-22T21:26:20.134Z,100359.66
2022-10-22T21:28:54.450Z,100360.63
2022-10-22T21:31:26.333Z,100365.50
2022-10-22T21:33:55.883Z,100367.19
2022-10-22T21:36:23.754Z,100358.16
2022-10-22T21:38:53.962Z,100359.50
2022-10-22T21:41:26.551Z,100353.91
2022-10-22T21:43:53.076Z,100353.53
2022-10-22T21:46:24.345Z,100346.63
2022-10-22T21:49:01.518Z,100337.50
2022-10-22T21:51:33.018Z,100334.44
2022-10-22T21:54:01.947Z,100340.63
2022-10-22T21:56:32.880Z,100329.66
2022-10-22T21:59:07.241Z,100328.84
2022-10-22T22:01:43.012Z,100325.47
2022-10-22T22:04:12.251Z,100317.84
2022-10-22T22:06:41.024Z,100321.28
2022-10-22T22:09:07.633Z,100316.91
2022-10-22T22:11:34.464Z,100319.47
2022-10-22T22:14:01.130Z,100314.44
2022-10-22T22:16:32.884Z,100323.63
2022-10-22T22:21:31.485Z,100330.88
2022-10-22T22:23:58.901Z,100341.06
2022-10-22T22:26:29.646Z,100335.91
2022-10-22T22:28:59.866Z,100341.97
2022-10-22T22:31:31.865Z,100344.66
2022-10-22T22:34:12.833Z,100347.38
2022-10-22T22:36:45.410Z,100346.78
2022-10-22T22:39:16.918Z,100347.19
2022-10-22T22:41:44.376Z,100352.34
2022-10-22T22:44:11.417Z,100367.50
2022-10-22T22:46:40.152Z,100365.50
2022-10-22T22:49:07.095Z,100372.31
2022-10-22T22:51:33.673Z,100381.50
2022-10-22T22:54:03.532Z,100369.84
2022-10-22T22:56:32.085Z,100385.19
2022-10-22T22:59:01.030Z,100375.81
2022-10-22T23:01:32.797Z,100393.84
2022-10-22T23:04:05.187Z,100396.50
2022-10-22T23:06:36.189Z,100397.78
2022-10-22T23:09:08.134Z,100393.97
2022-10-22T23:11:37.494Z,100402.69
2022-10-22T23:14:06.534Z,100403.75
2022-10-22T23:16:37.868Z,100387.78
2022-10-22T23:19:07.219Z,100389.69
2022-10-22T23:21:37.236Z,100388.25
2022-10-22T23:24:11.708Z,100396.31
2022-10-22T23:26:45.374Z,100394.19
2022-10-22T23:29:15.490Z,100388.31
2022-10-22T23:31:43.157Z,100396.25
2022-10-22T23:34:11.563Z,100398.88
2022-10-22T23:36:42.814Z,100401.38
2022-10-22T23:39:13.270Z,100404.94
2022-10-22T23:41:39.886Z,100408.47
2022-10-22T23:44:10.370Z,100398.41
2022-10-22T23:46:43.305Z,100396.66
2022-10-22T23:49:12.903Z,100407.59
2022-10-22T23:51:44.289Z,100403.75
2022-10-22T23:54:13.666Z,100408.13
2022-10-22T23:56:42.942Z,100404.81
2022-10-22T23:59:09.921Z,100401.00
